Time;durP1;ratioP1;P1;durP2;ratioP2;P2;SDS_P1;SDS_P2;PMS_P1;PMS_P2;Temp;Humidity;BMP_temperature;BMP_pressure;BME280_temperature;BME280_humidity;BME280_pressure;Samples;Min_cycle;Max_cycle;Signal;HPM_P1;HPM_P2
2023/05/16 00:01:29;;;;;;;4.23;3.70;;;24.50;42.70;;;;;;5070464;28;20445;-81
2023/05/16 00:03:57;;;;;;;4.47;4.07;;;24.50;42.90;;;;;;5078595;28;20462;-81
2023/05/16 00:06:26;;;;;;;5.60;4.13;;;24.40;42.80;;;;;;5077137;28;20438;-81
2023/05/16 00:08:53;;;;;;;4.10;3.70;;;24.40;42.80;;;;;;5073517;28;20448;-81
2023/05/16 00:11:23;;;;;;;5.40;3.57;;;24.40;42.80;;;;;;5081301;28;20468;-81
2023/05/16 00:13:52;;;;;;;4.73;3.80;;;24.40;42.90;;;;;;5075520;28;20466;-81
2023/05/16 00:16:20;;;;;;;3.80;3.50;;;24.40;43.00;;;;;;5068161;28;20442;-81
2023/05/16 00:18:49;;;;;;;4.00;3.50;;;24.30;42.90;;;;;;5077946;28;20441;-81
2023/05/16 00:21:17;;;;;;;4.43;3.60;;;24.30;43.00;;;;;;5069936;28;20444;-81
2023/05/16 00:23:45;;;;;;;4.07;3.33;;;24.30;43.20;;;;;;5079722;28;20470;-82
2023/05/16 00:26:13;;;;;;;4.60;3.10;;;24.30;43.00;;;;;;5081877;28;20483;-81
2023/05/16 00:28:43;;;;;;;3.87;3.50;;;24.30;43.20;;;;;;5074427;28;20503;-81
2023/05/16 00:31:10;;;;;;;3.90;3.60;;;24.30;43.20;;;;;;5077282;28;20416;-81
2023/05/16 00:33:38;;;;;;;3.20;3.00;;;24.30;43.20;;;;;;5081189;28;20454;-81
2023/05/16 00:36:07;;;;;;;3.43;3.13;;;24.30;43.20;;;;;;5084812;28;20441;-81
2023/05/16 00:38:34;;;;;;;4.00;3.60;;;24.30;43.30;;;;;;5079088;28;20473;-81
2023/05/16 00:41:03;;;;;;;4.07;2.97;;;24.20;43.30;;;;;;5072276;28;20426;-81
2023/05/16 00:43:30;;;;;;;4.37;3.27;;;24.20;43.40;;;;;;5074278;28;20512;-81
2023/05/16 00:46:00;;;;;;;3.70;3.40;;;24.20;43.30;;;;;;5078345;28;20436;-81
2023/05/16 00:48:28;;;;;;;4.63;2.90;;;24.20;43.40;;;;;;5078037;28;20446;-81
2023/05/16 00:50:57;;;;;;;3.10;2.80;;;24.20;43.40;;;;;;5079798;28;20469;-81
2023/05/16 00:53:24;;;;;;;3.77;2.90;;;24.10;43.40;;;;;;5079158;28;20443;-81
2023/05/16 00:55:53;;;;;;;3.37;2.87;;;24.10;43.60;;;;;;5084201;28;20408;-81
2023/05/16 00:58:21;;;;;;;3.03;2.73;;;24.10;43.50;;;;;;5074907;28;20431;-81
2023/05/16 01:00:49;;;;;;;3.30;3.00;;;24.10;43.60;;;;;;5080531;28;20419;-80
2023/05/16 01:03:18;;;;;;;2.90;2.70;;;24.00;43.50;;;;;;5073582;28;20478;-80
2023/05/16 01:05:46;;;;;;;3.33;2.63;;;24.10;43.70;;;;;;5074349;28;20438;-80
2023/05/16 01:08:14;;;;;;;2.97;2.60;;;24.00;43.60;;;;;;5085655;28;20443;-81
2023/05/16 01:10:47;;;;;;;3.00;2.80;;;24.00;43.70;;;;;;5082402;28;20510;-80
2023/05/16 01:13:18;;;;;;;3.10;2.60;;;24.00;43.80;;;;;;5074056;28;20533;-80
2023/05/16 01:15:47;;;;;;;2.37;2.20;;;23.90;43.70;;;;;;5073948;28;20470;-81
2023/05/16 01:18:22;;;;;;;4.80;2.50;;;23.90;43.70;;;;;;5079792;28;20502;-80
2023/05/16 01:20:54;;;;;;;4.50;2.30;;;23.90;43.70;;;;;;5069260;28;20445;-80
2023/05/16 01:23:33;;;;;;;4.80;2.80;;;23.90;43.90;;;;;;5064104;28;20478;-80
2023/05/16 01:26:15;;;;;;;2.30;2.03;;;23.90;43.80;;;;;;5080643;28;20426;-81
2023/05/16 01:28:44;;;;;;;2.93;2.73;;;23.90;44.00;;;;;;5074058;28;20427;-80
2023/05/16 01:31:12;;;;;;;2.93;2.73;;;23.80;43.90;;;;;;5073984;28;20446;-80
2023/05/16 01:33:40;;;;;;;5.00;2.20;;;23.80;44.00;;;;;;5075511;28;20455;-80
2023/05/16 01:36:13;;;;;;;4.50;2.53;;;23.80;43.90;;;;;;5068975;28;20473;-80
2023/05/16 01:38:49;;;;;;;4.13;2.27;;;23.80;44.00;;;;;;5079900;28;20438;-80
2023/05/16 01:41:22;;;;;;;2.03;1.87;;;23.80;43.90;;;;;;5073824;28;20441;-81
2023/05/16 01:43:52;;;;;;;2.83;1.97;;;23.70;43.90;;;;;;5075103;28;20478;-80
2023/05/16 01:46:21;;;;;;;3.40;2.73;;;23.70;44.00;;;;;;5068293;28;20451;-81
2023/05/16 01:48:52;;;;;;;3.47;2.43;;;23.70;44.00;;;;;;5079657;28;20495;-80
2023/05/16 01:51:22;;;;;;;3.37;2.30;;;23.70;44.20;;;;;;5078510;28;20446;-80
2023/05/16 01:53:50;;;;;;;3.00;2.70;;;23.70;44.10;;;;;;5072547;28;20462;-80
2023/05/16 01:56:20;;;;;;;2.60;2.00;;;23.70;44.20;;;;;;5086899;28;20461;-80
2023/05/16 01:58:48;;;;;;;3.77;2.00;;;23.70;44.30;;;;;;5083653;28;20449;-80
2023/05/16 02:01:16;;;;;;;4.00;2.40;;;23.70;44.30;;;;;;5081879;28;20518;-80
2023/05/16 02:03:45;;;;;;;3.70;2.20;;;23.60;44.20;;;;;;5068163;28;20474;-80
2023/05/16 02:06:12;;;;;;;5.70;2.33;;;23.60;44.20;;;;;;5071064;28;20434;-81
2023/05/16 02:08:41;;;;;;;2.40;2.20;;;23.50;44.30;;;;;;5077930;28;20405;-81
2023/05/16 02:11:09;;;;;;;2.10;1.90;;;23.50;44.40;;;;;;5065168;28;20433;-81
2023/05/16 02:13:39;;;;;;;3.33;2.17;;;23.50;44.30;;;;;;5079398;28;20458;-81
2023/05/16 02:16:07;;;;;;;3.63;2.43;;;23.50;44.30;;;;;;5073468;28;20458;-81
2023/05/16 02:18:35;;;;;;;3.53;2.00;;;23.50;44.40;;;;;;5084068;28;20443;-82
2023/05/16 02:21:03;;;;;;;3.60;2.00;;;23.40;44.40;;;;;;5074661;28;20480;-82
2023/05/16 02:23:31;;;;;;;2.00;1.77;;;23.40;44.40;;;;;;5076073;28;20470;-81
2023/05/16 02:25:59;;;;;;;3.00;2.10;;;23.40;44.50;;;;;;5075598;28;20491;-81
2023/05/16 02:28:28;;;;;;;2.50;1.87;;;23.40;44.40;;;;;;5084661;28;20532;-81
2023/05/16 02:30:58;;;;;;;2.40;2.07;;;23.30;44.60;;;;;;5075645;28;20468;-81
2023/05/16 02:33:27;;;;;;;3.07;2.03;;;23.30;44.60;;;;;;5084613;28;20507;-81
2023/05/16 02:35:55;;;;;;;1.73;1.60;;;23.30;44.50;;;;;;5082764;28;20444;-82
2023/05/16 02:38:23;;;;;;;4.70;2.17;;;23.30;44.60;;;;;;5080816;28;20939;-81
2023/05/16 02:40:51;;;;;;;2.67;2.20;;;23.30;44.70;;;;;;5075361;28;20449;-82
2023/05/16 02:43:19;;;;;;;9.07;2.03;;;23.20;44.60;;;;;;5073266;28;20485;-82
2023/05/16 02:45:47;;;;;;;3.00;2.07;;;23.10;44.70;;;;;;5083576;28;20444;-81
2023/05/16 02:48:16;;;;;;;2.83;1.97;;;23.10;44.80;;;;;;5076651;28;20442;-81
2023/05/16 02:50:45;;;;;;;2.80;1.80;;;23.10;44.80;;;;;;5073938;28;20450;-81
2023/05/16 02:53:13;;;;;;;3.93;2.07;;;23.10;44.90;;;;;;5064891;28;20456;-82
2023/05/16 02:55:41;;;;;;;2.23;2.00;;;23.00;44.80;;;;;;5070892;28;20450;-81
2023/05/16 02:58:09;;;;;;;3.47;1.60;;;23.00;44.90;;;;;;5069912;28;20457;-81
2023/05/16 03:00:38;;;;;;;3.90;2.20;;;23.00;44.90;;;;;;5073135;28;20465;-81
2023/05/16 03:03:06;;;;;;;4.97;1.80;;;22.90;44.90;;;;;;5068742;28;20578;-81
2023/05/16 03:05:36;;;;;;;5.33;2.03;;;22.90;44.90;;;;;;5072838;28;20426;-81
2023/05/16 03:08:04;;;;;;;3.50;2.10;;;22.90;44.80;;;;;;5071794;28;20449;-81
2023/05/16 03:10:33;;;;;;;4.00;1.77;;;22.80;44.90;;;;;;5066885;28;20959;-81
2023/05/16 03:13:01;;;;;;;2.20;1.63;;;22.80;44.90;;;;;;5074933;28;20457;-81
2023/05/16 03:15:29;;;;;;;3.90;2.27;;;22.80;44.90;;;;;;5080414;28;20446;-82
2023/05/16 03:17:57;;;;;;;3.13;1.70;;;22.70;44.90;;;;;;5064689;28;20457;-82
2023/05/16 03:20:26;;;;;;;4.30;1.80;;;22.70;45.00;;;;;;5074435;28;20446;-82
2023/05/16 03:22:55;;;;;;;7.10;2.30;;;22.70;45.00;;;;;;5076263;28;20472;-82
2023/05/16 03:25:24;;;;;;;3.00;1.70;;;22.70;45.00;;;;;;5076271;28;20977;-82
2023/05/16 03:27:52;;;;;;;6.33;2.10;;;22.60;44.90;;;;;;5078761;28;20521;-82
2023/05/16 03:30:20;;;;;;;3.00;1.73;;;22.60;45.00;;;;;;5064200;28;20915;-82
2023/05/16 03:32:48;;;;;;;2.93;2.00;;;22.60;45.10;;;;;;5069964;28;20471;-82
2023/05/16 03:35:16;;;;;;;4.80;2.17;;;22.50;45.00;;;;;;5067521;28;20864;-82
2023/05/16 03:37:44;;;;;;;4.00;2.07;;;22.50;45.10;;;;;;5064000;28;20632;-82
2023/05/16 03:40:14;;;;;;;6.67;2.00;;;22.50;45.20;;;;;;5073609;28;20430;-82
2023/05/16 03:42:42;;;;;;;5.17;2.00;;;22.50;45.10;;;;;;5067109;28;20533;-82
2023/05/16 03:45:11;;;;;;;3.73;1.97;;;22.50;45.10;;;;;;5076924;28;20438;-82
2023/05/16 03:47:38;;;;;;;2.40;1.30;;;22.40;45.10;;;;;;5070996;28;20441;-82
2023/05/16 03:50:08;;;;;;;2.47;1.90;;;22.40;45.20;;;;;;5068716;28;20438;-82
2023/05/16 03:52:36;;;;;;;3.37;2.00;;;22.40;45.20;;;;;;5067177;28;20427;-82
2023/05/16 03:55:05;;;;;;;2.67;1.63;;;22.30;45.10;;;;;;5077154;28;20452;-82
2023/05/16 03:57:36;;;;;;;5.67;1.60;;;22.30;45.00;;;;;;5080614;28;20930;-82
2023/05/16 04:00:07;;;;;;;3.40;1.80;;;22.30;45.20;;;;;;5083606;28;20446;-82
2023/05/16 04:02:35;;;;;;;2.50;1.70;;;22.30;45.10;;;;;;5078757;28;20449;-82
2023/05/16 04:05:03;;;;;;;6.37;2.13;;;22.20;45.00;;;;;;5083015;28;20503;-82
2023/05/16 04:07:31;;;;;;;5.53;2.50;;;22.20;45.10;;;;;;5078522;28;20958;-82
2023/05/16 04:09:59;;;;;;;3.80;2.57;;;22.20;45.10;;;;;;5079714;28;20472;-82
2023/05/16 04:12:28;;;;;;;5.33;3.07;;;22.30;45.00;;;;;;5083191;28;20461;-82
2023/05/16 04:14:57;;;;;;;3.43;2.93;;;22.20;45.00;;;;;;5080298;28;20446;-82
2023/05/16 04:17:25;;;;;;;2.83;2.57;;;22.20;45.00;;;;;;5070631;28;20608;-82
2023/05/16 04:19:54;;;;;;;4.17;3.20;;;22.20;45.10;;;;;;5070534;28;20454;-82
2023/05/16 04:22:22;;;;;;;3.60;2.70;;;22.20;45.10;;;;;;5079781;28;20449;-82
2023/05/16 04:24:50;;;;;;;6.47;3.30;;;22.20;45.10;;;;;;5073332;28;20473;-82
2023/05/16 04:27:18;;;;;;;5.10;3.27;;;22.20;45.10;;;;;;5079457;28;20914;-81
2023/05/16 04:29:46;;;;;;;6.00;3.67;;;22.10;45.10;;;;;;5066949;28;20508;-82
2023/05/16 04:32:17;;;;;;;5.97;4.30;;;22.10;45.20;;;;;;5068348;28;20408;-82
2023/05/16 04:34:45;;;;;;;5.70;3.80;;;22.20;45.20;;;;;;5066585;28;20492;-82
2023/05/16 04:37:13;;;;;;;5.80;3.90;;;22.10;45.10;;;;;;5077394;28;20452;-81
2023/05/16 04:39:42;;;;;;;8.57;5.03;;;22.10;45.20;;;;;;5078163;28;20469;-82
2023/05/16 04:42:10;;;;;;;7.70;4.50;;;22.10;45.10;;;;;;5067336;28;20783;-82
2023/05/16 04:44:38;;;;;;;7.33;4.73;;;22.00;45.10;;;;;;5072964;28;20465;-82
2023/05/16 04:47:06;;;;;;;5.23;4.10;;;22.00;45.20;;;;;;5067140;28;20445;-82
2023/05/16 04:49:36;;;;;;;8.67;4.90;;;22.00;45.20;;;;;;5072434;28;20456;-82
2023/05/16 04:52:04;;;;;;;7.37;4.50;;;22.00;45.20;;;;;;5070417;28;20452;-81
2023/05/16 04:54:32;;;;;;;9.17;4.60;;;22.10;45.00;;;;;;5064234;28;20454;-81
2023/05/16 04:57:01;;;;;;;4.57;4.17;;;22.00;45.20;;;;;;5062855;28;20445;-82
2023/05/16 04:59:29;;;;;;;7.60;4.40;;;22.00;45.20;;;;;;5073247;28;20487;-82
2023/05/16 05:01:57;;;;;;;11.53;5.00;;;22.00;45.20;;;;;;5075516;28;20516;-82
2023/05/16 05:04:25;;;;;;;4.90;4.23;;;22.00;45.20;;;;;;5073265;28;20478;-82
2023/05/16 05:06:55;;;;;;;7.90;5.00;;;22.00;45.20;;;;;;5066310;28;20446;-82
2023/05/16 05:09:23;;;;;;;6.43;4.80;;;22.00;45.00;;;;;;5069212;28;20447;-82
2023/05/16 05:11:51;;;;;;;9.10;4.80;;;22.00;45.00;;;;;;5060910;28;20448;-82
2023/05/16 05:14:20;;;;;;;7.83;4.50;;;22.00;45.20;;;;;;5067245;28;20453;-82
2023/05/16 05:16:48;;;;;;;4.93;4.00;;;22.00;45.20;;;;;;5071121;28;20449;-81
2023/05/16 05:19:16;;;;;;;5.67;4.43;;;22.00;45.20;;;;;;5076531;28;20483;-82
2023/05/16 05:21:44;;;;;;;7.80;4.27;;;22.00;45.30;;;;;;5074930;28;20456;-82
2023/05/16 05:24:14;;;;;;;5.67;4.00;;;22.00;45.20;;;;;;5072386;28;20470;-82
2023/05/16 05:26:42;;;;;;;5.60;4.37;;;22.00;45.40;;;;;;5062705;28;20485;-82
2023/05/16 05:29:10;;;;;;;6.13;4.37;;;22.00;45.30;;;;;;5062343;28;20457;-82
2023/05/16 05:31:38;;;;;;;6.77;4.03;;;22.00;45.30;;;;;;5071295;28;20446;-82
2023/05/16 05:34:09;;;;;;;6.30;4.40;;;22.00;45.30;;;;;;5064331;28;20489;-82
2023/05/16 05:36:37;;;;;;;7.17;4.73;;;22.00;45.30;;;;;;5075598;28;20476;-81
2023/05/16 05:39:05;;;;;;;7.40;4.27;;;22.00;45.20;;;;;;5067769;28;20450;-82
2023/05/16 05:41:34;;;;;;;4.77;3.80;;;22.00;45.20;;;;;;5073538;28;20479;-81
2023/05/16 05:44:02;;;;;;;7.43;4.20;;;22.00;45.10;;;;;;5072486;28;20472;-82
2023/05/16 05:46:30;;;;;;;6.07;3.97;;;22.00;45.20;;;;;;5076290;28;20446;-82
2023/05/16 05:48:59;;;;;;;8.83;4.37;;;22.00;45.20;;;;;;5074261;28;20535;-82
2023/05/16 05:51:27;;;;;;;6.97;3.80;;;22.00;45.20;;;;;;5074364;28;20438;-82
2023/05/16 05:53:55;;;;;;;8.53;4.10;;;22.00;45.10;;;;;;5072589;28;20466;-81
2023/05/16 05:56:24;;;;;;;4.77;3.80;;;22.00;45.20;;;;;;5073087;28;20969;-82
2023/05/16 05:58:53;;;;;;;6.50;3.50;;;22.00;45.20;;;;;;5074862;28;20448;-82
2023/05/16 06:01:22;;;;;;;9.23;4.33;;;22.00;45.20;;;;;;5078720;28;20509;-82
2023/05/16 06:03:51;;;;;;;5.97;3.90;;;22.00;45.10;;;;;;5079657;28;20544;-82
2023/05/16 06:06:19;;;;;;;6.20;4.00;;;22.00;45.00;;;;;;5078562;28;20472;-82
2023/05/16 06:08:47;;;;;;;7.90;3.90;;;22.00;45.00;;;;;;5067318;28;20510;-82
2023/05/16 06:11:15;;;;;;;6.30;4.03;;;22.10;45.20;;;;;;5060282;28;20443;-81
2023/05/16 06:13:43;;;;;;;6.40;3.80;;;22.10;45.10;;;;;;5068872;28;20476;-81
2023/05/16 06:16:12;;;;;;;5.20;3.53;;;22.10;45.00;;;;;;5071738;28;20431;-82
2023/05/16 06:18:41;;;;;;;6.27;4.17;;;22.10;45.00;;;;;;5077060;28;20434;-82
2023/05/16 06:21:08;;;;;;;5.63;3.80;;;22.20;45.10;;;;;;5083990;28;20501;-82
2023/05/16 06:23:37;;;;;;;6.70;4.00;;;22.20;45.00;;;;;;5083852;28;20463;-82
2023/05/16 06:26:07;;;;;;;12.40;4.20;;;22.20;45.10;;;;;;5071624;28;20516;-82
2023/05/16 06:28:35;;;;;;;7.67;4.00;;;22.30;45.10;;;;;;5078783;28;20452;-82
2023/05/16 06:31:03;;;;;;;5.57;3.53;;;22.30;45.00;;;;;;5066480;28;20416;-79
2023/05/16 06:33:32;;;;;;;7.20;3.80;;;22.40;45.00;;;;;;5071374;28;20466;-80
2023/05/16 06:36:00;;;;;;;5.87;3.80;;;22.40;45.00;;;;;;5076177;28;20460;-80
2023/05/16 06:38:28;;;;;;;4.83;2.97;;;22.50;44.80;;;;;;5069707;28;20448;-79
2023/05/16 06:40:57;;;;;;;15.33;2.73;;;22.50;44.80;;;;;;5072547;28;20612;-86
2023/05/16 06:43:25;;;;;;;11.30;2.30;;;21.80;44.40;;;;;;5066173;28;20473;-85
2023/05/16 06:45:54;;;;;;;13.37;3.60;;;21.40;42.00;;;;;;5068986;28;20460;-84
2023/05/16 06:48:22;;;;;;;8.57;4.20;;;20.80;43.00;;;;;;5071813;28;20434;-85
2023/05/16 06:50:51;;;;;;;14.27;4.07;;;20.10;40.50;;;;;;5073931;28;20437;-80
2023/05/16 06:53:19;;;;;;;11.37;3.07;;;20.00;45.30;;;;;;5078850;28;20523;-80
2023/05/16 06:55:48;;;;;;;14.87;3.43;;;20.70;43.90;;;;;;5075303;28;20430;-80
2023/05/16 06:58:16;;;;;;;8.33;2.90;;;21.30;42.60;;;;;;5078422;28;20446;-79
2023/05/16 07:00:44;;;;;;;13.83;3.30;;;21.70;41.70;;;;;;5076023;28;20456;-80
2023/05/16 07:03:14;;;;;;;7.40;2.90;;;22.00;41.20;;;;;;5061506;28;20441;-80
2023/05/16 07:05:43;;;;;;;7.30;3.20;;;22.30;40.70;;;;;;5064338;28;20469;-80
2023/05/16 07:08:12;;;;;;;10.23;3.33;;;22.40;40.50;;;;;;5065399;28;20470;-80
2023/05/16 07:10:41;;;;;;;13.47;4.27;;;22.50;40.20;;;;;;5071161;28;20875;-80
2023/05/16 07:13:09;;;;;;;8.70;3.50;;;22.50;40.20;;;;;;5070125;28;20462;-80
2023/05/16 07:15:37;;;;;;;9.63;3.30;;;22.60;40.20;;;;;;5061774;28;20450;-80
2023/05/16 07:18:08;;;;;;;6.70;3.27;;;22.60;40.20;;;;;;5067075;28;20458;-80
2023/05/16 07:20:36;;;;;;;4.53;2.80;;;22.70;40.10;;;;;;5070079;28;20825;-79
2023/05/16 07:23:04;;;;;;;9.00;3.60;;;22.80;40.10;;;;;;5064348;28;20507;-80
2023/05/16 07:25:34;;;;;;;11.07;3.63;;;22.90;40.10;;;;;;5068221;28;20466;-80
2023/05/16 07:28:05;;;;;;;11.27;4.03;;;22.90;40.20;;;;;;5065695;28;20441;-80
2023/05/16 07:30:34;;;;;;;5.43;3.23;;;23.00;40.30;;;;;;5062767;28;20495;-80
2023/05/16 07:33:02;;;;;;;5.93;3.67;;;23.10;40.20;;;;;;5066799;28;20519;-80
2023/05/16 07:35:31;;;;;;;6.13;3.50;;;23.20;40.40;;;;;;5073287;28;20438;-80
2023/05/16 07:37:59;;;;;;;6.53;3.03;;;23.40;40.20;;;;;;5065636;28;20414;-80
2023/05/16 07:40:28;;;;;;;6.00;3.03;;;23.50;40.20;;;;;;5082855;28;20453;-81
2023/05/16 07:42:58;;;;;;;4.33;3.57;;;23.60;40.10;;;;;;5083930;28;20462;-80
2023/05/16 07:45:26;;;;;;;6.90;3.40;;;23.70;39.90;;;;;;5089129;28;20477;-78
2023/05/16 07:47:58;;;;;;;4.80;3.13;;;23.70;39.80;;;;;;5091151;28;20442;-79
2023/05/16 07:50:26;;;;;;;7.43;3.67;;;23.70;40.00;;;;;;5084977;28;20409;-80
2023/05/16 07:52:54;;;;;;;6.70;3.57;;;23.70;39.90;;;;;;5082680;28;20524;-80
2023/05/16 07:55:22;;;;;;;4.83;3.20;;;23.80;40.00;;;;;;5085489;28;20423;-79
2023/05/16 07:57:51;;;;;;;8.37;3.97;;;23.80;40.00;;;;;;5094111;28;20431;-80
2023/05/16 08:00:21;;;;;;;4.10;3.20;;;23.90;40.10;;;;;;5090456;28;20442;-79
2023/05/16 08:02:49;;;;;;;5.70;3.80;;;24.00;40.20;;;;;;5087944;28;20465;-80
2023/05/16 08:05:17;;;;;;;5.03;3.10;;;24.10;40.20;;;;;;5074883;28;20489;-80
2023/05/16 08:07:45;;;;;;;6.07;3.23;;;24.30;40.30;;;;;;5082372;28;20790;-80
2023/05/16 08:10:13;;;;;;;5.87;3.47;;;24.40;40.20;;;;;;5072921;28;20499;-80
2023/05/16 08:12:41;;;;;;;4.43;3.20;;;24.50;40.20;;;;;;5075377;28;20439;-80
2023/05/16 08:15:10;;;;;;;6.17;3.30;;;24.60;40.30;;;;;;5080882;28;20426;-80
2023/05/16 08:17:40;;;;;;;5.57;3.50;;;24.80;40.40;;;;;;5072525;28;20457;-80
2023/05/16 08:20:09;;;;;;;3.33;2.83;;;24.90;40.30;;;;;;5071449;28;20432;-80
2023/05/16 08:22:38;;;;;;;9.00;3.73;;;25.20;40.30;;;;;;5072352;28;20443;-80
2023/05/16 08:25:08;;;;;;;5.47;3.50;;;25.40;40.00;;;;;;5075421;28;20432;-80
2023/05/16 08:27:36;;;;;;;4.40;3.00;;;25.60;39.90;;;;;;5077464;28;20440;-80
2023/05/16 08:30:06;;;;;;;3.90;2.93;;;25.80;39.50;;;;;;5073303;28;20910;-80
2023/05/16 08:32:34;;;;;;;5.17;3.10;;;25.90;39.60;;;;;;5068240;28;20429;-80
2023/05/16 08:35:05;;;;;;;4.10;3.10;;;25.90;39.10;;;;;;5080215;28;20444;-80
2023/05/16 08:37:33;;;;;;;4.37;2.97;;;25.90;39.00;;;;;;5073185;28;20439;-80
2023/05/16 08:40:02;;;;;;;4.60;2.73;;;25.90;39.10;;;;;;5079079;28;20447;-79
2023/05/16 08:42:30;;;;;;;4.07;2.87;;;25.90;39.10;;;;;;5083046;28;20401;-79
2023/05/16 08:44:58;;;;;;;3.40;2.97;;;26.00;39.50;;;;;;5082673;28;20510;-79
2023/05/16 08:47:27;;;;;;;3.70;2.83;;;26.20;39.40;;;;;;5074001;28;20465;-79
2023/05/16 08:49:55;;;;;;;4.27;2.50;;;26.40;39.30;;;;;;5078922;28;20415;-80
2023/05/16 08:52:27;;;;;;;3.03;2.57;;;26.60;39.10;;;;;;5071578;28;20454;-80
2023/05/16 08:54:57;;;;;;;5.17;3.20;;;27.00;39.70;;;;;;5068990;28;20424;-80
2023/05/16 08:57:38;;;;;;;6.30;2.80;;;27.20;38.90;;;;;;5075580;28;20413;-80
2023/05/16 09:00:10;;;;;;;2.50;2.40;;;27.20;38.50;;;;;;5071814;28;20427;-80
2023/05/16 09:02:41;;;;;;;4.33;2.57;;;27.20;38.40;;;;;;5077230;28;20465;-80
2023/05/16 09:05:12;;;;;;;3.70;2.30;;;27.30;38.70;;;;;;5080774;28;20430;-80
2023/05/16 09:07:41;;;;;;;3.83;2.70;;;27.40;38.70;;;;;;5079069;28;20468;-80
2023/05/16 09:10:10;;;;;;;2.80;2.40;;;27.60;38.70;;;;;;5072615;28;20946;-80
2023/05/16 09:12:39;;;;;;;4.00;2.47;;;27.80;38.60;;;;;;5077027;28;20417;-80
2023/05/16 09:15:09;;;;;;;4.43;2.60;;;28.00;38.40;;;;;;5080742;28;20420;-80
2023/05/16 09:17:38;;;;;;;4.07;2.60;;;28.20;38.30;;;;;;5080045;28;20530;-80
2023/05/16 09:20:14;;;;;;;4.90;2.10;;;28.20;37.80;;;;;;5083189;28;20546;-80
2023/05/16 09:22:50;;;;;;;3.63;2.37;;;28.30;37.90;;;;;;5081576;28;20438;-80
2023/05/16 09:25:18;;;;;;;2.20;1.90;;;28.60;38.00;;;;;;5065630;28;20445;-81
2023/05/16 09:27:58;;;;;;;3.50;2.33;;;28.80;37.70;;;;;;5080419;28;20439;-80
2023/05/16 09:30:28;;;;;;;3.00;2.70;;;28.90;37.40;;;;;;5074790;28;20875;-80
2023/05/16 09:32:57;;;;;;;2.43;2.00;;;29.00;37.30;;;;;;5075195;28;20470;-80
2023/05/16 09:35:26;;;;;;;3.00;2.30;;;29.00;37.00;;;;;;5081963;28;20465;-81
2023/05/16 09:37:59;;;;;;;6.40;2.50;;;28.80;36.90;;;;;;5078523;28;20437;-81
2023/05/16 09:40:27;;;;;;;2.80;2.17;;;28.60;37.70;;;;;;5072797;28;20492;-81
2023/05/16 09:43:02;;;;;;;6.60;2.30;;;28.50;37.30;;;;;;5073016;28;20465;-82
2023/05/16 09:45:31;;;;;;;3.77;2.13;;;28.40;37.40;;;;;;5074576;28;20421;-81
2023/05/16 09:48:02;;;;;;;3.90;2.47;;;28.40;37.60;;;;;;5087131;28;20470;-80
2023/05/16 09:50:35;;;;;;;5.23;2.67;;;28.40;38.00;;;;;;5079608;28;20421;-80
2023/05/16 09:53:07;;;;;;;2.33;2.10;;;28.60;38.30;;;;;;5078554;28;20465;-80
2023/05/16 09:55:39;;;;;;;4.00;2.23;;;28.80;38.40;;;;;;5077654;28;20504;-80
2023/05/16 09:58:07;;;;;;;4.47;2.33;;;29.00;38.40;;;;;;5080171;28;20438;-80
2023/05/16 10:00:37;;;;;;;2.00;1.90;;;29.30;38.40;;;;;;5083689;28;20442;-80
2023/05/16 10:03:06;;;;;;;2.33;2.03;;;29.50;38.30;;;;;;5084159;28;20470;-80
2023/05/16 10:05:36;;;;;;;1.70;1.60;;;29.70;38.20;;;;;;5077527;28;20409;-80
2023/05/16 10:08:06;;;;;;;5.83;2.30;;;30.00;38.00;;;;;;5081129;28;20472;-80
2023/05/16 10:10:36;;;;;;;2.03;1.93;;;30.30;38.00;;;;;;5078595;28;20452;-80
2023/05/16 10:13:05;;;;;;;2.60;2.00;;;30.50;37.80;;;;;;5078080;28;20468;-80
2023/05/16 10:15:33;;;;;;;2.40;2.20;;;30.80;37.70;;;;;;5075955;28;20440;-80
2023/05/16 10:18:02;;;;;;;2.97;1.80;;;31.00;37.30;;;;;;5065871;28;20858;-80
2023/05/16 10:20:31;;;;;;;2.43;2.00;;;31.00;36.90;;;;;;5079756;28;20474;-80
2023/05/16 10:22:59;;;;;;;2.70;1.90;;;30.80;36.80;;;;;;5082216;28;20466;-80
2023/05/16 10:25:34;;;;;;;1.90;1.70;;;30.60;37.00;;;;;;5080577;28;20443;-80
2023/05/16 10:28:02;;;;;;;2.37;2.10;;;30.40;37.10;;;;;;5075450;28;20548;-80
2023/05/16 10:30:33;;;;;;;2.23;1.80;;;30.10;37.10;;;;;;5067491;28;20446;-80
2023/05/16 10:33:03;;;;;;;2.13;1.93;;;29.90;37.30;;;;;;5083298;28;20458;-80
2023/05/16 10:35:35;;;;;;;1.97;1.83;;;29.70;37.60;;;;;;5075565;28;20446;-80
2023/05/16 10:38:04;;;;;;;2.00;1.80;;;29.60;37.80;;;;;;5072306;28;20412;-79
2023/05/16 10:40:36;;;;;;;2.17;2.07;;;29.50;37.80;;;;;;5065719;28;20435;-79
2023/05/16 10:43:08;;;;;;;2.03;1.73;;;29.50;37.90;;;;;;5067261;28;20450;-79
2023/05/16 10:45:40;;;;;;;2.07;1.87;;;29.50;38.00;;;;;;5064626;28;20417;-79
2023/05/16 10:48:11;;;;;;;3.17;1.73;;;29.70;37.90;;;;;;5065505;28;20444;-80
2023/05/16 10:50:41;;;;;;;2.10;2.00;;;29.70;37.60;;;;;;5073201;28;20424;-79
2023/05/16 10:53:18;;;;;;;1.90;1.50;;;29.60;37.40;;;;;;5074521;28;20511;-79
2023/05/16 10:56:08;;;;;;;2.00;1.90;;;29.40;37.50;;;;;;5075890;28;20441;-79
2023/05/16 10:58:44;;;;;;;4.10;1.73;;;29.30;37.70;;;;;;5065237;28;20443;-80
2023/05/16 11:01:19;;;;;;;2.23;1.93;;;29.10;37.80;;;;;;5076990;28;20414;-80
2023/05/16 11:04:11;;;;;;;1.73;1.63;;;28.90;37.80;;;;;;5070076;28;20437;-80
2023/05/16 11:06:47;;;;;;;3.53;2.07;;;28.70;38.10;;;;;;5072692;28;20438;-80
2023/05/16 11:09:24;;;;;;;2.40;2.00;;;28.50;38.20;;;;;;5080375;28;20416;-81
2023/05/16 11:12:05;;;;;;;2.30;2.20;;;28.50;38.40;;;;;;5066490;28;20450;-80
2023/05/16 11:14:43;;;;;;;2.50;2.00;;;28.90;38.60;;;;;;5062960;28;20439;-80
2023/05/16 11:17:12;;;;;;;2.33;2.07;;;30.60;38.20;;;;;;5072842;28;20442;-80
2023/05/16 11:19:44;;;;;;;1.77;1.67;;;32.00;36.50;;;;;;5071329;28;20438;-81
2023/05/16 11:22:21;;;;;;;2.93;1.90;;;33.40;34.70;;;;;;5076631;28;20982;-80
2023/05/16 11:24:55;;;;;;;2.70;1.90;;;33.90;32.00;;;;;;5065583;28;20461;-80
2023/05/16 11:27:29;;;;;;;2.17;1.97;;;33.50;32.00;;;;;;5072978;28;20562;-80
2023/05/16 11:30:00;;;;;;;1.67;1.57;;;32.60;32.80;;;;;;5077832;28;20446;-80
2023/05/16 11:32:34;;;;;;;1.87;1.70;;;32.00;33.70;;;;;;5071792;28;20470;-80
2023/05/16 11:35:03;;;;;;;2.37;1.67;;;32.90;35.00;;;;;;5071287;28;20534;-80
2023/05/16 11:37:35;;;;;;;3.00;2.00;;;33.40;32.10;;;;;;5071615;28;20442;-80
2023/05/16 11:40:05;;;;;;;2.13;1.63;;;32.70;32.50;;;;;;5067432;28;20503;-80
2023/05/16 11:42:40;;;;;;;2.53;2.33;;;31.90;33.20;;;;;;5072571;28;20450;-80
2023/05/16 11:45:14;;;;;;;1.90;1.63;;;31.20;34.00;;;;;;5078259;28;20438;-81
2023/05/16 11:47:44;;;;;;;2.13;1.60;;;30.70;34.70;;;;;;5075418;28;20546;-80
2023/05/16 11:50:13;;;;;;;3.60;2.07;;;30.30;35.20;;;;;;5067723;28;20447;-81
2023/05/16 11:52:43;;;;;;;3.20;2.23;;;30.20;35.90;;;;;;5075367;28;20442;-80
2023/05/16 11:55:11;;;;;;;2.43;2.13;;;30.10;35.80;;;;;;5074269;28;20428;-80
2023/05/16 11:57:46;;;;;;;2.13;1.97;;;30.00;36.00;;;;;;5082440;28;20438;-81
2023/05/16 12:00:19;;;;;;;4.60;2.57;;;29.70;36.20;;;;;;5075936;28;20471;-80
2023/05/16 12:02:47;;;;;;;3.07;2.50;;;29.60;36.60;;;;;;5082831;28;20462;-81
2023/05/16 12:05:19;;;;;;;3.77;2.53;;;29.50;36.80;;;;;;5073100;28;20453;-80
2023/05/16 12:07:50;;;;;;;2.70;2.50;;;29.70;37.50;;;;;;5079627;28;20915;-80
2023/05/16 12:10:18;;;;;;;3.37;2.70;;;30.60;37.70;;;;;;5082185;28;20453;-80
2023/05/16 12:12:52;;;;;;;2.53;2.23;;;32.30;37.00;;;;;;5081244;28;20461;-80
2023/05/16 12:15:20;;;;;;;3.00;2.73;;;32.90;34.10;;;;;;5077552;28;20871;-79
2023/05/16 12:17:49;;;;;;;3.53;2.87;;;33.00;32.70;;;;;;5084170;28;20433;-80
2023/05/16 12:20:18;;;;;;;2.77;2.57;;;32.60;32.90;;;;;;5082205;28;20456;-80
2023/05/16 12:22:46;;;;;;;2.67;2.20;;;32.10;33.50;;;;;;5076275;28;20454;-80
2023/05/16 12:25:24;;;;;;;2.70;2.50;;;31.70;34.10;;;;;;5082492;28;20453;-81
2023/05/16 12:27:57;;;;;;;3.17;2.43;;;32.00;35.30;;;;;;5071098;28;20516;-80
2023/05/16 12:30:27;;;;;;;5.00;2.40;;;32.90;35.00;;;;;;5067385;28;20485;-80
2023/05/16 12:33:08;;;;;;;2.43;2.23;;;34.10;33.60;;;;;;5069340;28;20468;-80
2023/05/16 12:35:39;;;;;;;2.43;2.20;;;34.80;30.70;;;;;;5070975;28;20466;-80
2023/05/16 12:38:10;;;;;;;2.37;2.27;;;34.40;31.10;;;;;;5076406;28;20434;-80
2023/05/16 12:40:39;;;;;;;2.40;2.20;;;34.20;30.80;;;;;;5069905;28;20469;-80
2023/05/16 12:43:15;;;;;;;2.60;2.40;;;33.60;31.30;;;;;;5071582;28;20507;-81
2023/05/16 12:45:44;;;;;;;5.60;2.80;;;32.90;31.60;;;;;;5082291;28;20442;-81
2023/05/16 12:48:16;;;;;;;4.43;2.90;;;32.30;32.50;;;;;;5072312;28;20465;-81
2023/05/16 12:50:45;;;;;;;2.93;2.60;;;31.60;33.00;;;;;;5068567;28;20500;-81
2023/05/16 12:53:17;;;;;;;4.53;2.27;;;31.10;33.70;;;;;;5064802;28;20457;-80
2023/05/16 12:55:46;;;;;;;4.30;2.63;;;30.70;34.30;;;;;;5076375;28;20441;-80
2023/05/16 12:58:22;;;;;;;3.70;2.80;;;30.30;34.80;;;;;;5073428;28;20419;-80